createdAt,value
2019-05-15T00:02:34.018Z,1.43
2019-05-15T00:05:39.352Z,1.67
2019-05-15T00:08:43.863Z,1.60
2019-05-15T00:11:48.304Z,1.70
2019-05-15T00:14:52.726Z,1.70
2019-05-15T00:17:57.913Z,1.60
2019-05-15T00:21:02.475Z,1.70
2019-05-15T00:24:12.750Z,1.80
2019-05-15T00:27:13.386Z,1.97
2019-05-15T00:30:18.344Z,2.00
2019-05-15T00:33:23.025Z,2.10
2019-05-15T00:36:28.657Z,2.10
2019-05-15T00:39:33.426Z,1.83
2019-05-15T00:42:38.591Z,1.87
2019-05-15T00:45:44.486Z,1.80
2019-05-15T00:48:49.255Z,1.93
2019-05-15T00:51:53.831Z,2.40
2019-05-15T00:54:59.004Z,2.23
2019-05-15T00:58:03.476Z,2.30
2019-05-15T01:01:08.396Z,2.33
2019-05-15T01:04:12.995Z,1.87
2019-05-15T01:07:18.832Z,2.10
2019-05-15T01:10:23.469Z,2.10
2019-05-15T01:13:28.276Z,2.20
2019-05-15T01:16:32.815Z,1.93
2019-05-15T01:19:37.978Z,1.90
2019-05-15T01:22:42.841Z,1.97
2019-05-15T01:25:48.218Z,2.07
2019-05-15T01:28:52.887Z,2.03
2019-05-15T01:31:59.341Z,1.90
2019-05-15T01:35:04.361Z,1.67
2019-05-15T01:38:08.960Z,1.90
2019-05-15T01:41:13.672Z,1.90
2019-05-15T01:44:18.103Z,2.00
2019-05-15T01:47:22.532Z,2.17
2019-05-15T01:50:29.111Z,2.00
2019-05-15T01:53:33.144Z,1.90
2019-05-15T01:56:38.710Z,1.87
2019-05-15T01:59:56.938Z,1.77
2019-05-15T02:02:49.759Z,1.73
2019-05-15T02:05:54.168Z,1.90
2019-05-15T02:08:58.841Z,1.97
2019-05-15T02:12:03.412Z,2.27
2019-05-15T02:15:09.469Z,2.00
2019-05-15T02:18:13.905Z,1.70
2019-05-15T02:21:18.656Z,2.03
2019-05-15T02:24:23.093Z,1.80
2019-05-15T02:27:29.458Z,1.77
2019-05-15T02:30:34.409Z,2.10
2019-05-15T02:33:40.259Z,1.97
2019-05-15T02:36:45.176Z,2.10
2019-05-15T02:39:49.801Z,2.33
2019-05-15T02:42:54.324Z,2.37
2019-05-15T02:46:00.371Z,2.10
2019-05-15T02:49:04.990Z,2.17
2019-05-15T02:52:10.119Z,2.17
2019-05-15T02:55:14.932Z,1.90
2019-05-15T02:58:21.428Z,2.30
2019-05-15T03:01:28.379Z,2.40
2019-05-15T03:04:31.741Z,2.10
2019-05-15T03:07:39.706Z,2.77
2019-05-15T03:10:42.636Z,2.10
2019-05-15T03:13:50.305Z,2.60
2019-05-15T03:16:53.224Z,2.67
2019-05-15T03:19:59.029Z,2.60
2019-05-15T03:23:03.553Z,2.80
2019-05-15T03:26:08.841Z,2.87
2019-05-15T03:29:13.793Z,2.87
2019-05-15T03:32:33.493Z,3.03
2019-05-15T03:35:24.412Z,2.63
2019-05-15T03:38:29.901Z,2.83
2019-05-15T03:41:34.680Z,2.73
2019-05-15T03:44:39.577Z,2.70
2019-05-15T03:47:44.076Z,2.80
2019-05-15T03:50:49.130Z,2.67
2019-05-15T03:53:53.560Z,2.83
2019-05-15T03:56:58.617Z,3.20
2019-05-15T04:00:03.476Z,2.80
2019-05-15T04:03:10.650Z,2.73
2019-05-15T04:06:14.241Z,3.27
2019-05-15T04:09:19.119Z,3.00
2019-05-15T04:12:23.593Z,3.30
2019-05-15T04:15:30.112Z,3.20
2019-05-15T04:18:34.749Z,3.03
2019-05-15T04:21:43.956Z,2.80
2019-05-15T04:24:49.390Z,2.90
2019-05-15T04:27:53.328Z,3.40
2019-05-15T04:30:59.545Z,3.53
2019-05-15T04:34:04.195Z,3.23
2019-05-15T04:37:09.365Z,3.10
2019-05-15T04:40:14.404Z,3.50
2019-05-15T04:43:19.492Z,2.97
2019-05-15T04:46:24.355Z,3.60
2019-05-15T04:49:29.383Z,3.37
2019-05-15T04:52:33.891Z,3.60
2019-05-15T04:55:40.365Z,3.63
2019-05-15T04:58:44.944Z,3.63
2019-05-15T05:01:53.284Z,3.37
2019-05-15T05:04:58.625Z,3.80
2019-05-15T05:08:02.309Z,3.50
2019-05-15T05:11:09.401Z,3.47
2019-05-15T05:14:12.939Z,3.80
2019-05-15T05:17:19.563Z,4.00
2019-05-15T05:20:23.530Z,3.90
2019-05-15T05:23:28.447Z,4.30
2019-05-15T05:26:33.222Z,4.07
2019-05-15T05:29:38.624Z,4.53
2019-05-15T05:32:44.116Z,3.97
2019-05-15T05:35:48.980Z,3.93
2019-05-15T05:38:54.273Z,3.70
2019-05-15T05:41:59.037Z,3.20
2019-05-15T05:45:03.535Z,3.90
2019-05-15T05:48:08.811Z,3.90
2019-05-15T05:51:13.486Z,3.43
2019-05-15T05:54:18.351Z,3.60
2019-05-15T05:57:21.924Z,3.50
2019-05-15T06:00:42.116Z,3.30
2019-05-15T06:03:48.898Z,2.63
2019-05-15T06:07:06.252Z,2.53
2019-05-15T06:09:58.861Z,2.80
2019-05-15T06:13:03.371Z,2.57
2019-05-15T06:16:08.454Z,2.87
2019-05-15T06:19:13.126Z,2.60
2019-05-15T06:22:18.816Z,2.33
2019-05-15T06:25:23.276Z,2.00
2019-05-15T06:28:28.930Z,2.40
2019-05-15T06:31:33.724Z,2.50
2019-05-15T06:34:38.495Z,2.10
2019-05-15T06:37:43.227Z,2.30
2019-05-15T06:40:48.637Z,2.07
2019-05-15T06:43:53.422Z,1.87
2019-05-15T06:46:58.747Z,2.00
2019-05-15T06:50:05.555Z,2.10
2019-05-15T06:53:10.984Z,2.20
2019-05-15T06:56:15.573Z,2.13
2019-05-15T06:59:20.014Z,3.07
2019-05-15T07:02:24.760Z,2.53
2019-05-15T07:05:29.614Z,2.60
2019-05-15T07:08:34.024Z,3.20
2019-05-15T07:11:38.930Z,2.27
2019-05-15T07:14:43.782Z,1.80
2019-05-15T07:17:48.526Z,1.73
2019-05-15T07:20:53.016Z,2.03
2019-05-15T07:23:58.346Z,1.87
2019-05-15T07:27:03.071Z,2.03
2019-05-15T07:30:12.206Z,2.00
2019-05-15T07:33:20.261Z,2.53
2019-05-15T07:36:22.652Z,1.90
2019-05-15T07:39:28.854Z,1.80
2019-05-15T07:42:33.648Z,2.07
2019-05-15T07:45:43.679Z,1.93
2019-05-15T07:48:44.670Z,1.87
2019-05-15T07:51:49.147Z,1.80
2019-05-15T07:54:53.597Z,1.90
2019-05-15T07:57:59.132Z,1.87
2019-05-15T08:01:05.494Z,1.90
2019-05-15T08:04:25.143Z,2.10
2019-05-15T08:07:18.509Z,2.07
2019-05-15T08:10:23.671Z,1.80
2019-05-15T08:13:28.917Z,2.10
2019-05-15T08:16:33.591Z,1.63
2019-05-15T08:19:38.599Z,2.00
2019-05-15T08:22:45.883Z,1.80
2019-05-15T08:25:49.441Z,2.00
2019-05-15T08:28:54.215Z,1.80
2019-05-15T08:31:59.221Z,1.83
2019-05-15T08:35:07.940Z,1.90
2019-05-15T08:38:14.234Z,1.77
2019-05-15T08:41:18.666Z,1.53
2019-05-15T08:44:23.200Z,1.93
2019-05-15T08:47:29.695Z,1.80
2019-05-15T08:50:34.096Z,2.00
2019-05-15T08:53:38.531Z,1.70
2019-05-15T08:56:42.991Z,1.87
2019-05-15T08:59:48.819Z,1.73
2019-05-15T09:02:53.347Z,2.77
2019-05-15T09:05:58.966Z,1.60
2019-05-15T09:09:04.935Z,2.00
2019-05-15T09:12:09.370Z,1.60
2019-05-15T09:15:14.717Z,2.17
2019-05-15T09:18:20.442Z,1.63
2019-05-15T09:21:25.055Z,1.70
2019-05-15T09:24:29.612Z,1.50
2019-05-15T09:27:34.346Z,1.67
2019-05-15T09:30:39.729Z,1.87
2019-05-15T09:33:44.233Z,2.00
2019-05-15T09:36:49.457Z,1.60
2019-05-15T09:39:54.191Z,1.87
2019-05-15T09:42:58.630Z,1.57
2019-05-15T09:46:03.068Z,1.50
2019-05-15T09:49:08.810Z,1.70
2019-05-15T09:52:13.494Z,1.77
2019-05-15T09:55:19.343Z,1.40
2019-05-15T09:58:23.780Z,1.53
2019-05-15T10:01:28.605Z,1.70
2019-05-15T10:04:33.137Z,1.50
2019-05-15T10:07:40.140Z,1.73
2019-05-15T10:10:43.762Z,1.60
2019-05-15T10:13:48.192Z,1.50
2019-05-15T10:16:52.632Z,1.80
2019-05-15T10:19:58.276Z,1.53
2019-05-15T10:23:02.792Z,1.60
2019-05-15T10:26:13.646Z,1.53
2019-05-15T10:29:13.676Z,1.70
2019-05-15T10:32:19.455Z,1.77
2019-05-15T10:35:28.601Z,1.50
2019-05-15T10:38:30.671Z,1.50
2019-05-15T10:41:35.455Z,1.53
2019-05-15T10:44:40.193Z,1.70
2019-05-15T10:47:44.929Z,1.60
2019-05-15T10:50:49.357Z,1.73
2019-05-15T10:53:53.939Z,1.90
2019-05-15T10:57:00.781Z,1.60
2019-05-15T11:00:07.950Z,1.43
2019-05-15T11:03:12.530Z,1.63
2019-05-15T11:06:18.329Z,1.70
2019-05-15T11:09:22.904Z,1.93
2019-05-15T11:12:29.251Z,1.53
2019-05-15T11:15:33.877Z,1.77
2019-05-15T11:18:39.432Z,1.37
2019-05-15T11:21:44.016Z,1.80
2019-05-15T11:24:52.322Z,1.67
2019-05-15T11:27:54.629Z,1.60
2019-05-15T11:30:59.645Z,2.90
2019-05-15T11:34:04.161Z,1.50
2019-05-15T11:37:08.620Z,1.80
2019-05-15T11:40:13.990Z,1.60
2019-05-15T11:43:19.692Z,1.37
2019-05-15T11:46:25.854Z,1.43
2019-05-15T11:49:30.894Z,1.60
2019-05-15T11:52:37.359Z,1.70
2019-05-15T11:55:41.523Z,1.93
2019-05-15T11:58:45.957Z,1.70
2019-05-15T12:01:50.402Z,1.67
2019-05-15T12:04:54.838Z,1.70
2019-05-15T12:07:59.280Z,1.77
2019-05-15T12:11:04.020Z,1.90
2019-05-15T12:14:08.764Z,1.60
2019-05-15T12:17:15.553Z,1.43
2019-05-15T12:20:19.692Z,2.20
2019-05-15T12:23:24.087Z,1.40
2019-05-15T12:26:29.396Z,1.57
2019-05-15T12:29:33.939Z,1.70
2019-05-15T12:32:40.395Z,1.70
2019-05-15T12:35:44.938Z,1.70
2019-05-15T12:38:50.319Z,1.57
2019-05-15T13:00:32.710Z,1.50
2019-05-15T13:03:38.319Z,1.73
2019-05-15T13:06:51.266Z,1.50
2019-05-15T13:09:49.363Z,1.50
2019-05-15T13:13:00.938Z,1.50
2019-05-15T13:15:59.967Z,1.70
2019-05-15T13:19:04.428Z,1.60
2019-05-15T13:22:17.872Z,2.20
2019-05-15T13:25:15.460Z,3.80
2019-05-15T13:28:19.904Z,4.30
2019-05-15T13:31:24.338Z,1.80
2019-05-15T13:34:30.629Z,1.57
2019-05-15T13:37:35.041Z,1.50
2019-05-15T13:40:42.328Z,1.30
2019-05-15T13:43:46.211Z,1.50
2019-05-15T13:46:50.652Z,1.43
2019-05-15T13:49:55.103Z,1.30
2019-05-15T13:52:59.559Z,1.20
2019-05-15T13:56:03.984Z,1.60
2019-05-15T13:59:08.446Z,1.40
2019-05-15T14:02:13.164Z,1.23
2019-05-15T14:05:17.678Z,1.30
2019-05-15T14:08:22.120Z,1.60
2019-05-15T14:11:30.960Z,1.30
2019-05-15T14:14:32.783Z,1.40
2019-05-15T14:17:37.858Z,1.20
2019-05-15T14:20:42.302Z,1.40
2019-05-15T14:23:47.839Z,1.23
2019-05-15T14:26:52.530Z,1.17
2019-05-15T14:29:58.164Z,1.47
2019-05-15T14:33:03.034Z,1.70
2019-05-15T14:36:08.469Z,1.77
2019-05-15T14:39:13.091Z,1.30
2019-05-15T14:42:18.672Z,1.30
2019-05-15T14:45:23.492Z,1.43
2019-05-15T14:48:28.230Z,1.30
2019-05-15T14:51:32.752Z,1.40
2019-05-15T14:54:38.464Z,1.30
2019-05-15T14:57:43.096Z,1.47
2019-05-15T15:00:50.099Z,1.40
2019-05-15T15:03:54.030Z,1.00
2019-05-15T15:06:58.757Z,1.20
2019-05-15T15:10:03.570Z,1.20
2019-05-15T15:13:09.472Z,1.70
2019-05-15T15:16:14.487Z,1.33
2019-05-15T15:19:18.934Z,1.73
2019-05-15T15:22:23.367Z,1.40
2019-05-15T15:25:28.393Z,1.50
2019-05-15T15:28:32.828Z,1.20
2019-05-15T15:31:39.041Z,1.20
2019-05-15T15:34:43.444Z,1.20
2019-05-15T15:37:48.717Z,1.10
2019-05-15T15:40:53.307Z,1.50
2019-05-15T15:43:58.680Z,1.20
2019-05-15T15:47:03.536Z,1.30
2019-05-15T15:50:09.879Z,1.40
2019-05-15T15:53:14.742Z,1.50
2019-05-15T15:56:19.194Z,1.40
2019-05-15T15:59:23.650Z,1.50
2019-05-15T16:02:28.242Z,1.43
2019-05-15T16:05:32.704Z,1.47
2019-05-15T16:08:51.593Z,1.40
2019-05-15T16:11:43.640Z,1.20
2019-05-15T16:14:48.804Z,1.10
2019-05-15T16:17:53.490Z,1.50
2019-05-15T16:20:58.056Z,1.70
2019-05-15T16:24:13.698Z,1.40
2019-05-15T16:27:09.615Z,1.33
2019-05-15T16:30:18.571Z,1.70
2019-05-15T16:33:22.687Z,1.40
2019-05-15T16:36:27.132Z,1.30
2019-05-15T16:39:31.843Z,1.70
2019-05-15T16:42:38.471Z,1.60
2019-05-15T16:45:43.250Z,1.60
2019-05-15T16:48:49.478Z,1.63
2019-05-15T16:51:54.142Z,1.40
2019-05-15T16:54:58.876Z,1.70
2019-05-15T16:58:03.622Z,1.73
2019-05-15T17:01:08.639Z,1.30
2019-05-15T17:04:13.080Z,1.83
2019-05-15T17:07:18.210Z,1.50
2019-05-15T17:10:22.839Z,1.73
2019-05-15T17:13:28.734Z,1.70
2019-05-15T17:16:33.493Z,1.50
2019-05-15T17:19:38.180Z,1.77
2019-05-15T17:22:42.889Z,1.83
2019-05-15T17:25:48.887Z,1.43
2019-05-15T17:28:53.381Z,1.67
2019-05-15T17:31:57.833Z,1.50
2019-05-15T17:35:02.554Z,1.70
2019-05-15T17:38:06.984Z,1.67
2019-05-15T17:41:11.428Z,1.50
2019-05-15T17:44:16.226Z,1.50
2019-05-15T17:47:20.748Z,1.43
2019-05-15T17:50:25.186Z,2.00
2019-05-15T17:53:29.630Z,1.33
2019-05-15T17:56:34.721Z,1.70
2019-05-15T17:59:39.158Z,1.40
2019-05-15T18:02:43.973Z,1.40
2019-05-15T18:05:48.526Z,1.20
2019-05-15T18:08:53.233Z,1.10
2019-05-15T18:11:58.699Z,1.20
2019-05-15T18:15:03.293Z,1.10
2019-05-15T18:18:09.612Z,1.00
2019-05-15T18:21:13.986Z,1.03
2019-05-15T18:24:18.729Z,1.27
2019-05-15T18:27:23.179Z,1.30
2019-05-15T18:30:28.186Z,0.90
2019-05-15T18:33:33.309Z,0.80
2019-05-15T18:36:39.174Z,0.90
2019-05-15T18:39:43.880Z,0.70
2019-05-15T18:42:49.521Z,0.83
2019-05-15T18:45:54.140Z,0.80
2019-05-15T18:48:58.939Z,0.80
2019-05-15T18:52:03.658Z,0.73
2019-05-15T18:55:09.309Z,1.07
2019-05-15T18:58:13.753Z,0.83
2019-05-15T19:01:18.471Z,0.97
2019-05-15T19:04:23.199Z,1.37
2019-05-15T19:07:28.659Z,0.90
2019-05-15T19:10:33.250Z,0.93
2019-05-15T19:13:38.990Z,0.97
2019-05-15T19:16:43.759Z,1.20
2019-05-15T19:19:48.322Z,1.30
2019-05-15T19:22:53.015Z,1.30
2019-05-15T19:25:58.043Z,1.60
2019-05-15T19:29:02.568Z,1.20
2019-05-15T19:32:10.621Z,1.13
2019-05-15T19:35:13.911Z,1.00
2019-05-15T19:38:18.707Z,1.30
2019-05-15T19:41:23.129Z,1.00
2019-05-15T19:44:28.520Z,1.13
2019-05-15T19:47:33.188Z,1.40
2019-05-15T19:50:37.626Z,1.40
2019-05-15T19:53:42.078Z,1.30
2019-05-15T19:56:48.159Z,2.00
2019-05-15T19:59:52.710Z,1.57
2019-05-15T20:02:58.057Z,1.33
2019-05-15T20:06:03.660Z,1.10
2019-05-15T20:09:08.246Z,1.13
2019-05-15T20:12:12.698Z,1.40
2019-05-15T20:15:19.023Z,1.30
2019-05-15T20:18:23.683Z,1.20
2019-05-15T20:21:29.020Z,1.30
2019-05-15T20:24:34.352Z,1.80
2019-05-15T20:27:39.413Z,1.10
2019-05-15T20:30:44.259Z,1.60
2019-05-15T20:34:02.105Z,1.20
2019-05-15T20:36:55.461Z,1.43
2019-05-15T20:40:00.187Z,1.10
2019-05-15T20:43:05.237Z,1.10
2019-05-15T20:46:09.664Z,1.30
2019-05-15T20:49:14.105Z,1.50
2019-05-15T20:52:21.588Z,1.20
2019-05-15T20:55:24.977Z,1.20
2019-05-15T20:58:29.701Z,1.20
2019-05-15T21:01:34.198Z,1.00
2019-05-15T21:04:38.657Z,0.90
2019-05-15T21:07:43.557Z,1.10
2019-05-15T21:10:49.187Z,0.97
2019-05-15T21:13:54.074Z,1.27
2019-05-15T21:16:59.013Z,1.20
2019-05-15T21:20:04.238Z,2.00
2019-05-15T21:23:09.176Z,1.40
2019-05-15T21:26:13.808Z,1.27
2019-05-15T21:29:18.628Z,1.43
2019-05-15T21:32:23.384Z,1.20
2019-05-15T21:35:30.395Z,1.27
2019-05-15T21:38:33.971Z,1.10
2019-05-15T21:41:38.939Z,1.07
2019-05-15T21:44:43.330Z,1.10
2019-05-15T21:47:48.058Z,1.23
2019-05-15T21:50:52.487Z,2.00
2019-05-15T21:53:58.244Z,1.50
2019-05-15T21:57:18.807Z,1.30
2019-05-15T22:00:34.013Z,1.33
2019-05-15T22:03:38.983Z,1.17
2019-05-15T22:06:43.367Z,1.50
2019-05-15T22:09:48.754Z,1.67
2019-05-15T22:12:53.340Z,1.50
2019-05-15T22:15:59.271Z,1.37
2019-05-15T22:19:04.444Z,1.33
2019-05-15T22:22:09.275Z,1.40
2019-05-15T22:25:14.691Z,1.50
2019-05-15T22:28:19.452Z,1.40
2019-05-15T22:31:24.186Z,2.10
2019-05-15T22:34:28.916Z,1.10
2019-05-15T22:37:33.344Z,1.50
2019-05-15T22:40:38.115Z,1.60
2019-05-15T22:43:42.882Z,1.60
2019-05-15T22:46:48.771Z,1.80
2019-05-15T22:49:53.341Z,1.30
2019-05-15T22:52:58.978Z,2.23
2019-05-15T22:56:03.873Z,1.77
2019-05-15T22:59:08.665Z,1.40
2019-05-15T23:02:13.510Z,1.70
2019-05-15T23:05:27.791Z,1.70
2019-05-15T23:08:24.175Z,1.80
2019-05-15T23:11:29.937Z,1.97
2019-05-15T23:14:34.821Z,1.53
2019-05-15T23:17:39.525Z,1.80
2019-05-15T23:20:44.484Z,1.73
2019-05-15T23:23:48.969Z,2.00
2019-05-15T23:26:53.433Z,2.03
2019-05-15T23:29:58.308Z,1.70
2019-05-15T23:33:02.695Z,2.17
2019-05-15T23:36:07.124Z,1.77
2019-05-15T23:39:11.623Z,1.80
2019-05-15T23:42:18.474Z,1.73
2019-05-15T23:45:22.532Z,1.80
2019-05-15T23:48:28.425Z,2.30
2019-05-15T23:51:32.989Z,2.03
2019-05-15T23:54:38.513Z,1.93
2019-05-15T23:57:43.116Z,2.00
